Time;durP1;ratioP1;P1;durP2;ratioP2;P2;SDS_P1;SDS_P2;PMS_P1;PMS_P2;Temp;Humidity;BMP_temperature;BMP_pressure;BME280_temperature;BME280_humidity;BME280_pressure;Samples;Min_cycle;Max_cycle;Signal;HPM_P1;HPM_P2
2021/01/24 00:01:07;;;;;;;19.10;13.18;;;4.40;99.90;;;;;;5013759;28;20082;-82
2021/01/24 00:03:33;;;;;;;20.52;12.80;;;4.30;99.90;;;;;;5000254;28;20055;-82
2021/01/24 00:06:00;;;;;;;20.30;13.05;;;4.30;99.90;;;;;;5002980;28;20506;-81
2021/01/24 00:08:26;;;;;;;18.65;13.07;;;4.30;99.90;;;;;;5003806;28;20081;-81
2021/01/24 00:10:53;;;;;;;19.25;13.73;;;4.40;99.90;;;;;;5002383;28;20138;-81
2021/01/24 00:13:20;;;;;;;17.75;13.27;;;4.30;99.90;;;;;;5002343;28;20086;-80
2021/01/24 00:15:46;;;;;;;19.90;13.13;;;4.30;99.90;;;;;;5001844;28;20463;-80
2021/01/24 00:18:12;;;;;;;20.33;13.98;;;4.30;99.90;;;;;;5009395;28;20106;-79
2021/01/24 00:20:39;;;;;;;21.73;14.77;;;4.30;99.90;;;;;;5017356;28;20050;-80
2021/01/24 00:23:05;;;;;;;19.42;14.23;;;4.20;99.90;;;;;;5020431;28;20114;-81
2021/01/24 00:25:32;;;;;;;23.67;14.98;;;4.10;99.90;;;;;;5019209;28;20129;-80
2021/01/24 00:27:59;;;;;;;19.83;14.50;;;4.10;99.90;;;;;;5020127;28;20129;-80
2021/01/24 00:30:25;;;;;;;21.25;14.98;;;4.20;99.90;;;;;;5021236;28;20077;-80
2021/01/24 00:32:51;;;;;;;22.50;14.93;;;4.30;99.90;;;;;;5003245;28;20137;-80
2021/01/24 00:35:18;;;;;;;20.55;15.18;;;4.30;99.90;;;;;;5000751;28;20078;-81
2021/01/24 00:37:44;;;;;;;22.70;15.57;;;4.30;99.90;;;;;;4999450;28;20081;-79
2021/01/24 00:40:11;;;;;;;22.08;15.13;;;4.40;99.90;;;;;;5005774;28;20080;-81
2021/01/24 00:42:38;;;;;;;20.90;15.30;;;4.50;99.90;;;;;;5010393;28;20129;-80
2021/01/24 00:45:07;;;;;;;20.70;14.32;;;4.50;99.90;;;;;;5014213;28;20525;-80
2021/01/24 00:47:34;;;;;;;19.65;14.55;;;4.50;99.90;;;;;;5009909;28;20085;-80
2021/01/24 00:50:02;;;;;;;21.63;14.70;;;4.40;99.90;;;;;;5000801;28;20125;-80
2021/01/24 00:52:28;;;;;;;21.02;14.80;;;4.30;99.90;;;;;;5004936;28;20129;-79
2021/01/24 00:54:55;;;;;;;21.10;14.10;;;4.20;99.90;;;;;;4999308;28;20054;-82
2021/01/24 00:57:21;;;;;;;19.25;13.40;;;4.10;99.90;;;;;;4999194;28;20074;-83
2021/01/24 00:59:48;;;;;;;18.02;12.50;;;3.90;99.90;;;;;;5000129;28;20061;-81
2021/01/24 01:02:15;;;;;;;19.02;12.90;;;3.70;99.90;;;;;;4999025;28;20133;-81
2021/01/24 01:04:42;;;;;;;19.20;12.95;;;3.60;99.90;;;;;;5001041;28;20085;-81
2021/01/24 01:07:08;;;;;;;20.05;13.10;;;3.40;99.90;;;;;;5014916;28;20113;-80
2021/01/24 01:09:36;;;;;;;20.13;12.85;;;3.30;99.90;;;;;;5013409;28;20097;-81
2021/01/24 01:12:02;;;;;;;23.15;15.13;;;3.10;99.90;;;;;;5007575;28;20132;-83
2021/01/24 01:14:28;;;;;;;22.63;14.55;;;2.80;99.90;;;;;;5018740;28;20081;-81
2021/01/24 01:16:55;;;;;;;22.05;13.15;;;2.70;99.90;;;;;;5018889;28;20128;-80
2021/01/24 01:19:22;;;;;;;18.48;12.10;;;2.60;99.90;;;;;;5031012;28;20078;-80
2021/01/24 01:21:48;;;;;;;13.48;8.93;;;2.40;99.90;;;;;;5018065;28;20133;-79
2021/01/24 01:24:15;;;;;;;10.68;7.07;;;2.40;99.90;;;;;;5005334;28;20113;-80
2021/01/24 01:26:41;;;;;;;9.70;6.97;;;2.40;99.90;;;;;;5009653;28;20081;-81
2021/01/24 01:29:08;;;;;;;12.07;7.90;;;2.30;99.90;;;;;;5010722;28;20043;-81
2021/01/24 01:31:34;;;;;;;12.52;8.25;;;2.20;99.90;;;;;;5012804;28;20073;-80
2021/01/24 01:34:00;;;;;;;12.52;8.90;;;2.20;99.90;;;;;;5022687;28;20072;-80
2021/01/24 01:36:28;;;;;;;13.45;9.25;;;2.10;99.90;;;;;;5019695;28;20065;-80
2021/01/24 01:38:54;;;;;;;13.10;8.45;;;2.10;99.90;;;;;;5014291;28;20173;-80
2021/01/24 01:41:20;;;;;;;12.88;8.57;;;2.00;99.90;;;;;;5005926;28;20077;-79
2021/01/24 01:43:47;;;;;;;12.38;8.23;;;2.00;99.90;;;;;;5000002;28;20085;-78
2021/01/24 01:46:19;;;;;;;13.18;8.60;;;2.00;99.90;;;;;;4994139;28;20627;-78
2021/01/24 01:48:46;;;;;;;13.18;9.02;;;2.00;99.90;;;;;;4994245;28;20578;-79
2021/01/24 01:51:12;;;;;;;12.30;8.70;;;1.90;99.90;;;;;;4994610;28;20133;-78
2021/01/24 01:53:40;;;;;;;11.98;8.65;;;1.90;99.90;;;;;;4995990;28;20137;-79
2021/01/24 01:56:06;;;;;;;11.90;8.40;;;1.80;99.90;;;;;;4996906;28;20082;-80
2021/01/24 01:58:32;;;;;;;11.48;8.18;;;1.80;99.90;;;;;;4999371;28;20054;-79
2021/01/24 02:01:02;;;;;;;12.13;7.90;;;1.80;99.90;;;;;;4997118;28;20487;-79
2021/01/24 02:03:45;;;;;;;10.43;7.78;;;1.80;99.90;;;;;;4996348;28;20550;-78
2021/01/24 02:06:15;;;;;;;;;;;1.80;99.90;;;;;;4995890;28;20126;-79
2021/01/24 02:08:50;;;;;;;8.23;5.85;;;1.70;99.90;;;;;;4996186;28;19922;-78
2021/01/24 02:11:23;;;;;;;7.97;5.38;;;1.70;99.90;;;;;;4996227;28;20137;-78
2021/01/24 02:14:05;;;;;;;9.02;5.03;;;1.70;99.90;;;;;;4996019;28;20085;-78
2021/01/24 02:16:35;;;;;;;6.03;4.22;;;1.60;99.90;;;;;;4996994;28;20046;-79
2021/01/24 02:19:04;;;;;;;6.18;4.50;;;1.60;99.90;;;;;;4997056;28;20088;-79
2021/01/24 02:21:33;;;;;;;5.55;4.07;;;1.60;99.90;;;;;;4999244;28;20474;-79
2021/01/24 02:24:02;;;;;;;5.85;4.78;;;1.60;99.90;;;;;;4996705;28;20081;-79
2021/01/24 02:26:39;;;;;;;7.28;5.93;;;1.60;99.90;;;;;;4994869;28;20086;-78
2021/01/24 02:29:13;;;;;;;7.88;5.68;;;1.70;99.90;;;;;;4994164;28;20146;-80
2021/01/24 02:31:43;;;;;;;7.82;5.88;;;1.60;99.90;;;;;;4994883;28;20604;-78
2021/01/24 02:34:11;;;;;;;8.75;6.40;;;1.60;99.90;;;;;;4994034;28;20054;-79
2021/01/24 02:36:39;;;;;;;7.97;6.22;;;1.50;99.90;;;;;;4993908;28;20138;-79
2021/01/24 02:39:06;;;;;;;8.40;6.00;;;1.50;99.90;;;;;;4994600;28;20050;-79
2021/01/24 02:41:34;;;;;;;7.30;5.55;;;1.50;99.90;;;;;;4997985;28;20054;-79
2021/01/24 02:44:02;;;;;;;5.15;3.80;;;1.50;99.90;;;;;;4997088;28;20526;-79
2021/01/24 02:46:30;;;;;;;7.28;3.30;;;1.50;99.90;;;;;;4997440;28;20085;-79
2021/01/24 02:48:58;;;;;;;3.53;2.70;;;1.50;99.90;;;;;;4999888;28;20085;-79
2021/01/24 02:51:24;;;;;;;2.80;1.90;;;1.40;99.90;;;;;;4999698;28;20488;-79
2021/01/24 02:53:53;;;;;;;3.15;2.50;;;1.40;99.90;;;;;;4998428;28;20118;-79
2021/01/24 02:56:21;;;;;;;2.80;2.50;;;1.40;99.90;;;;;;4997984;28;20104;-79
2021/01/24 02:58:49;;;;;;;5.22;2.42;;;1.40;99.90;;;;;;4997743;28;20061;-78
2021/01/24 03:01:15;;;;;;;5.53;2.25;;;1.40;99.90;;;;;;4996502;28;20046;-79
2021/01/24 03:03:42;;;;;;;2.85;2.15;;;1.30;99.90;;;;;;4997740;28;20133;-79
2021/01/24 03:06:10;;;;;;;5.65;2.30;;;1.30;99.90;;;;;;4998239;28;20111;-79
2021/01/24 03:08:38;;;;;;;2.67;2.00;;;1.30;99.90;;;;;;4999453;28;20498;-80
2021/01/24 03:11:05;;;;;;;3.72;2.45;;;1.30;99.90;;;;;;4999237;28;20118;-80
2021/01/24 03:13:39;;;;;;;5.30;2.65;;;1.30;99.90;;;;;;4999178;28;20113;-80
2021/01/24 03:16:07;;;;;;;4.00;3.00;;;1.30;99.90;;;;;;4998733;28;20073;-80
2021/01/24 03:18:38;;;;;;;4.90;3.10;;;1.30;99.90;;;;;;4999927;28;20133;-81
2021/01/24 03:21:08;;;;;;;5.07;2.83;;;1.30;99.90;;;;;;4999833;28;20050;-80
2021/01/24 03:23:37;;;;;;;4.25;2.78;;;1.30;99.90;;;;;;5000202;28;20101;-79
2021/01/24 03:26:05;;;;;;;7.10;3.25;;;1.30;99.90;;;;;;4998374;28;20081;-80
2021/01/24 03:28:32;;;;;;;6.57;4.05;;;1.30;99.90;;;;;;4997350;28;20078;-79
2021/01/24 03:30:58;;;;;;;9.60;3.55;;;1.20;99.90;;;;;;4997354;28;20085;-80
2021/01/24 03:33:25;;;;;;;8.32;3.78;;;1.20;99.90;;;;;;5000324;28;20089;-80
2021/01/24 03:35:51;;;;;;;4.82;3.35;;;1.20;99.90;;;;;;4999126;28;20054;-79
2021/01/24 03:38:18;;;;;;;5.63;3.90;;;1.20;99.90;;;;;;5001298;28;20159;-80
2021/01/24 03:40:45;;;;;;;6.15;3.75;;;1.20;99.90;;;;;;5008024;28;20105;-78
2021/01/24 03:43:11;;;;;;;7.03;4.20;;;1.10;99.90;;;;;;5005311;28;20089;-82
2021/01/24 03:45:38;;;;;;;10.40;4.55;;;1.10;99.90;;;;;;5000847;28;20053;-79
2021/01/24 03:48:05;;;;;;;10.38;4.65;;;1.10;99.90;;;;;;5001600;28;20069;-81
2021/01/24 03:50:31;;;;;;;8.20;4.75;;;1.10;99.90;;;;;;5002249;28;20087;-81
2021/01/24 03:52:57;;;;;;;11.25;4.93;;;1.00;99.90;;;;;;5002761;28;20129;-81
2021/01/24 03:55:24;;;;;;;10.77;5.20;;;1.00;99.90;;;;;;5006674;28;20088;-82
2021/01/24 03:57:51;;;;;;;12.88;6.20;;;1.10;99.90;;;;;;5017565;28;20061;-81
2021/01/24 04:00:18;;;;;;;13.52;6.90;;;1.10;99.90;;;;;;5009146;28;20357;-82
2021/01/24 04:02:45;;;;;;;9.88;6.22;;;1.10;99.90;;;;;;5003280;28;20078;-82
2021/01/24 04:05:11;;;;;;;15.93;6.60;;;1.10;99.90;;;;;;5003046;28;20085;-83
2021/01/24 04:07:38;;;;;;;12.13;5.80;;;1.10;99.90;;;;;;5001844;28;20104;-82
2021/01/24 04:10:06;;;;;;;13.25;7.00;;;1.10;99.90;;;;;;5000438;28;20121;-82
2021/01/24 04:12:33;;;;;;;8.38;4.95;;;1.10;99.90;;;;;;5000162;28;20081;-83
2021/01/24 04:15:00;;;;;;;11.32;6.10;;;1.00;99.90;;;;;;5000129;28;20502;-82
2021/01/24 04:17:26;;;;;;;15.32;6.47;;;1.10;99.90;;;;;;4999443;28;20066;-82
2021/01/24 04:19:53;;;;;;;9.82;5.25;;;1.00;99.90;;;;;;5001244;28;20086;-81
2021/01/24 04:22:19;;;;;;;11.02;6.63;;;1.00;99.90;;;;;;5002191;28;20137;-80
2021/01/24 04:24:46;;;;;;;9.27;5.47;;;1.00;99.90;;;;;;5004533;28;20109;-81
2021/01/24 04:27:12;;;;;;;10.70;5.30;;;1.10;99.90;;;;;;5003140;28;20057;-82
2021/01/24 04:29:38;;;;;;;10.07;5.78;;;1.10;99.90;;;;;;5003885;28;20081;-81
2021/01/24 04:32:06;;;;;;;10.52;4.82;;;1.10;99.90;;;;;;5004897;28;20077;-82
2021/01/24 04:34:32;;;;;;;11.43;5.45;;;1.10;99.90;;;;;;5003492;28;20050;-82
2021/01/24 04:36:59;;;;;;;8.50;5.13;;;1.10;99.90;;;;;;5004238;28;20081;-83
2021/01/24 04:39:25;;;;;;;10.75;5.90;;;1.10;99.90;;;;;;5003871;28;20092;-83
2021/01/24 04:41:53;;;;;;;11.55;5.63;;;1.10;99.90;;;;;;5002936;28;20089;-82
2021/01/24 04:44:20;;;;;;;10.63;5.90;;;1.10;99.90;;;;;;5001614;28;20109;-83
2021/01/24 04:46:47;;;;;;;11.55;5.82;;;1.10;99.90;;;;;;5000857;28;20102;-82
2021/01/24 04:49:15;;;;;;;11.98;6.25;;;1.10;99.90;;;;;;4997716;28;20245;-80
2021/01/24 04:51:41;;;;;;;13.35;6.07;;;1.10;99.90;;;;;;4997819;28;20082;-81
2021/01/24 04:54:08;;;;;;;12.57;6.55;;;1.10;99.90;;;;;;4998673;28;20134;-80
2021/01/24 04:56:36;;;;;;;12.30;6.88;;;1.10;99.90;;;;;;4998432;28;20133;-81
2021/01/24 04:59:03;;;;;;;14.10;7.72;;;1.20;99.90;;;;;;4999057;28;20134;-81
2021/01/24 05:01:31;;;;;;;18.88;8.05;;;1.20;99.90;;;;;;4999150;28;20125;-81
2021/01/24 05:03:59;;;;;;;15.98;8.43;;;1.20;99.90;;;;;;5002416;28;20582;-81
2021/01/24 05:06:26;;;;;;;17.60;9.15;;;1.20;99.90;;;;;;5017479;28;20129;-81
2021/01/24 05:08:53;;;;;;;19.08;9.88;;;1.20;99.90;;;;;;5017313;28;20050;-80
2021/01/24 05:11:21;;;;;;;22.42;10.77;;;1.20;99.90;;;;;;5015889;28;20065;-80
2021/01/24 05:13:48;;;;;;;23.40;11.35;;;1.30;99.90;;;;;;5016349;28;20052;-80
2021/01/24 05:16:14;;;;;;;23.08;11.23;;;1.30;99.90;;;;;;5002942;28;20085;-80
2021/01/24 05:18:41;;;;;;;24.30;10.57;;;1.20;99.90;;;;;;5020273;28;20052;-80
2021/01/24 05:21:09;;;;;;;28.05;12.50;;;1.30;99.90;;;;;;5020292;28;20081;-80
2021/01/24 05:23:38;;;;;;;16.50;7.72;;;1.30;99.90;;;;;;5019454;28;20050;-79
2021/01/24 05:26:09;;;;;;;18.15;8.60;;;1.30;99.90;;;;;;5019870;28;20473;-79
2021/01/24 05:28:46;;;;;;;12.48;6.25;;;1.30;99.90;;;;;;5021339;28;20046;-81
2021/01/24 05:31:21;;;;;;;11.00;5.68;;;1.30;99.90;;;;;;5021232;28;20050;-81
2021/01/24 05:33:47;;;;;;;16.35;6.15;;;1.30;99.90;;;;;;5020730;28;20081;-81
2021/01/24 05:36:14;;;;;;;10.43;5.35;;;1.30;99.90;;;;;;5070538;22;20092;-85
2021/01/24 05:38:42;;;;;;;14.60;5.88;;;1.30;99.90;;;;;;5035879;28;20072;-81
2021/01/24 05:41:10;;;;;;;15.48;5.97;;;1.30;99.90;;;;;;5034702;28;20077;-83
2021/01/24 05:43:37;;;;;;;9.82;6.63;;;1.30;99.90;;;;;;5035140;28;20131;-82
2021/01/24 05:46:04;;;;;;;0.85;0.85;;;1.30;99.90;;;;;;5035820;28;20080;-82
2021/01/24 05:48:32;;;;;;;1.40;1.40;;;1.30;99.90;;;;;;5035466;28;20056;-82
2021/01/24 05:51:01;;;;;;;0.10;0.10;;;1.30;99.90;;;;;;5034969;28;20084;-81
2021/01/24 05:53:28;;;;;;;0.00;0.00;;;1.30;99.90;;;;;;5035799;28;20072;-82
2021/01/24 05:55:56;;;;;;;0.43;0.43;;;1.30;99.90;;;;;;5035280;28;20049;-82
2021/01/24 05:58:24;;;;;;;0.52;0.52;;;1.30;99.90;;;;;;5035447;28;20580;-80
2021/01/24 06:00:51;;;;;;;0.15;0.15;;;1.30;99.90;;;;;;5035268;28;20159;-82
2021/01/24 06:03:19;;;;;;;0.10;0.10;;;1.40;99.90;;;;;;5035920;28;20132;-83
2021/01/24 06:05:45;;;;;;;0.30;0.30;;;1.40;99.90;;;;;;5035001;28;20112;-82
2021/01/24 06:08:14;;;;;;;0.90;0.90;;;1.40;99.90;;;;;;5036145;28;20132;-81
2021/01/24 06:10:41;;;;;;;0.55;0.55;;;1.40;99.90;;;;;;5038089;28;20140;-82
2021/01/24 06:13:12;;;;;;;0.10;0.10;;;1.50;99.90;;;;;;5039337;28;20077;-81
2021/01/24 06:15:43;;;;;;;0.03;0.03;;;1.50;99.90;;;;;;5036129;28;20492;-81
2021/01/24 06:18:15;;;;;;;1.20;1.10;;;1.50;99.90;;;;;;5036896;28;20081;-80
2021/01/24 06:20:46;;;;;;;0.20;0.20;;;1.50;99.90;;;;;;5037368;28;20086;-81
2021/01/24 06:23:19;;;;;;;1.42;1.33;;;1.50;99.90;;;;;;5036589;28;20152;-80
2021/01/24 06:25:49;;;;;;;2.83;1.08;;;1.40;99.90;;;;;;5034842;28;20154;-81
2021/01/24 06:28:21;;;;;;;3.10;1.50;;;1.50;99.90;;;;;;5035765;28;20106;-79
2021/01/24 06:30:49;;;;;;;2.60;2.40;;;1.50;99.90;;;;;;5034776;28;20056;-80
2021/01/24 06:33:17;;;;;;;1.85;1.10;;;1.40;99.90;;;;;;5034532;28;20091;-80
2021/01/24 06:35:45;;;;;;;1.88;1.58;;;1.40;99.90;;;;;;5033358;28;20136;-83
2021/01/24 06:38:27;;;;;;;0.98;0.98;;;1.50;99.90;;;;;;5033447;28;20053;-82
2021/01/24 06:40:54;;;;;;;0.10;0.10;;;1.50;99.90;;;;;;5034319;28;20075;-81
2021/01/24 06:43:41;;;;;;;0.40;0.40;;;1.50;99.90;;;;;;5034362;28;20148;-81
2021/01/24 06:46:08;;;;;;;0.10;0.10;;;1.50;99.90;;;;;;5033333;28;20057;-81
2021/01/24 06:48:45;;;;;;;0.32;0.32;;;1.50;99.90;;;;;;5034017;28;20080;-81
2021/01/24 06:51:35;;;;;;;0.28;0.28;;;1.50;99.90;;;;;;5033150;28;20132;-82
2021/01/24 06:54:04;;;;;;;0.77;0.75;;;1.50;99.90;;;;;;5034508;28;20390;-82
2021/01/24 06:56:38;;;;;;;12.80;3.22;;;1.50;99.90;;;;;;5034735;28;20136;-83
2021/01/24 06:59:05;;;;;;;0.10;0.10;;;1.50;99.90;;;;;;5034555;28;20092;-83
2021/01/24 07:01:32;;;;;;;0.77;0.73;;;1.50;99.90;;;;;;5034061;28;20502;-80
2021/01/24 07:04:42;;;;;;;0.55;0.55;;;1.50;99.90;;;;;;5034626;28;20057;-80
2021/01/24 07:07:34;;;;;;;1.65;1.17;;;1.50;99.90;;;;;;5034096;28;20450;-79
2021/01/24 07:10:01;;;;;;;0.55;0.55;;;1.50;99.90;;;;;;5033636;28;20640;-80
2021/01/24 07:12:43;;;;;;;1.15;1.15;;;1.60;99.90;;;;;;5033974;28;20316;-79
2021/01/24 07:15:24;;;;;;;0.77;0.77;;;1.50;99.90;;;;;;5032367;28;20085;-78
2021/01/24 07:18:01;;;;;;;0.10;0.10;;;1.50;99.90;;;;;;5031234;28;20053;-82
2021/01/24 07:20:28;;;;;;;0.32;0.32;;;1.50;99.90;;;;;;5031397;28;20049;-80
2021/01/24 07:22:54;;;;;;;2.00;1.27;;;1.50;99.90;;;;;;5031386;28;20160;-81
2021/01/24 07:25:22;;;;;;;0.82;0.80;;;1.50;99.90;;;;;;5031637;28;20072;-82
2021/01/24 07:27:53;;;;;;;1.67;1.17;;;1.50;99.90;;;;;;5031346;28;20045;-83
2021/01/24 07:30:27;;;;;;;0.40;0.40;;;1.50;99.90;;;;;;5031238;28;20053;-81
2021/01/24 07:32:54;;;;;;;1.05;1.05;;;1.50;99.90;;;;;;5031563;28;20506;-82
2021/01/24 07:35:21;;;;;;;0.80;0.80;;;1.60;99.90;;;;;;5035867;28;20054;-82
2021/01/24 07:37:51;;;;;;;0.85;0.85;;;1.60;99.90;;;;;;5039576;28;20045;-84
2021/01/24 07:40:20;;;;;;;1.55;1.30;;;1.60;99.90;;;;;;5038981;28;20474;-82
2021/01/24 07:42:47;;;;;;;3.20;1.75;;;1.60;99.90;;;;;;5041007;28;20055;-83
2021/01/24 07:45:13;;;;;;;0.85;0.85;;;1.60;99.90;;;;;;5039946;28;20053;-83
2021/01/24 07:47:41;;;;;;;0.60;0.60;;;1.60;99.90;;;;;;5041515;28;20084;-82
2021/01/24 07:50:09;;;;;;;1.30;1.23;;;1.70;99.90;;;;;;5042789;28;20065;-81
2021/01/24 07:52:35;;;;;;;13.25;2.55;;;1.70;99.90;;;;;;5043988;28;20383;-83
2021/01/24 07:55:02;;;;;;;2.75;1.55;;;1.70;99.90;;;;;;5041731;28;20088;-83
2021/01/24 07:57:29;;;;;;;2.00;1.52;;;1.70;99.90;;;;;;5044041;28;20080;-84
2021/01/24 07:59:55;;;;;;;0.38;0.38;;;1.70;99.90;;;;;;5042231;28;20092;-83
2021/01/24 08:02:26;;;;;;;1.98;1.55;;;1.80;99.90;;;;;;5045440;28;20045;-82
2021/01/24 08:05:08;;;;;;;0.10;0.10;;;1.80;99.90;;;;;;5046813;28;20049;-87
2021/01/24 08:07:34;;;;;;;0.30;0.30;;;1.80;99.90;;;;;;5043483;28;20467;-82
2021/01/24 08:10:00;;;;;;;0.15;0.15;;;1.80;99.90;;;;;;5036615;28;20588;-81
2021/01/24 08:12:27;;;;;;;0.77;0.77;;;1.80;99.90;;;;;;5037736;28;20170;-81
2021/01/24 08:14:54;;;;;;;0.10;0.10;;;1.90;99.90;;;;;;5036165;28;20088;-83
2021/01/24 08:17:25;;;;;;;0.30;0.30;;;1.90;99.90;;;;;;5035840;28;20129;-84
2021/01/24 08:19:55;;;;;;;0.20;0.20;;;1.90;99.90;;;;;;5032103;28;20340;-84
2021/01/24 08:22:26;;;;;;;0.45;0.45;;;1.90;99.90;;;;;;5033976;28;20140;-83
2021/01/24 08:24:54;;;;;;;1.75;1.65;;;1.90;99.90;;;;;;5036874;28;20129;-82
2021/01/24 08:27:21;;;;;;;0.10;0.10;;;2.00;99.90;;;;;;5038713;28;20494;-84
2021/01/24 08:29:48;;;;;;;0.63;0.63;;;2.00;99.90;;;;;;5038011;28;20136;-82
2021/01/24 08:32:15;;;;;;;0.10;0.10;;;2.00;99.90;;;;;;5041724;28;20389;-81
2021/01/24 08:34:42;;;;;;;4.65;1.98;;;2.00;99.90;;;;;;5039564;28;20128;-81
2021/01/24 08:37:09;;;;;;;0.98;0.93;;;2.00;99.90;;;;;;5038070;28;20069;-81
2021/01/24 08:39:36;;;;;;;0.05;0.05;;;2.00;99.90;;;;;;5039925;28;20090;-80
2021/01/24 08:42:05;;;;;;;0.63;0.60;;;2.00;99.90;;;;;;5043132;28;20064;-81
2021/01/24 08:44:31;;;;;;;2.05;1.23;;;2.00;99.90;;;;;;5039806;28;20135;-82
2021/01/24 08:47:03;;;;;;;0.60;0.60;;;2.00;99.90;;;;;;5042220;28;20088;-81
2021/01/24 08:49:31;;;;;;;0.38;0.38;;;2.00;99.90;;;;;;5043019;28;20045;-79
2021/01/24 08:51:59;;;;;;;1.35;1.13;;;2.10;99.90;;;;;;5043545;28;20050;-80
2021/01/24 08:54:29;;;;;;;0.70;0.70;;;2.00;99.90;;;;;;5042679;28;20079;-81
2021/01/24 08:57:10;;;;;;;0.10;0.10;;;2.00;99.90;;;;;;5043335;28;20157;-80
2021/01/24 08:59:58;;;;;;;0.82;0.82;;;2.00;99.90;;;;;;5045611;28;20080;-75
2021/01/24 09:02:29;;;;;;;6.20;1.25;;;2.00;99.90;;;;;;5036124;28;20050;-80
2021/01/24 09:04:56;;;;;;;0.28;0.28;;;2.00;99.90;;;;;;5037709;28;20053;-80
2021/01/24 09:07:22;;;;;;;1.67;1.58;;;2.00;99.90;;;;;;5036105;28;20072;-80
2021/01/24 09:09:53;;;;;;;0.47;0.47;;;1.90;99.90;;;;;;5035956;28;20164;-79
2021/01/24 09:12:20;;;;;;;0.00;0.00;;;1.90;99.90;;;;;;5029019;28;20084;-79
2021/01/24 09:14:48;;;;;;;0.38;0.38;;;2.00;99.90;;;;;;5034386;28;20053;-78
2021/01/24 09:17:16;;;;;;;0.30;0.30;;;2.10;99.90;;;;;;5033821;28;20077;-78
2021/01/24 09:19:44;;;;;;;1.17;1.17;;;2.10;99.90;;;;;;5034956;28;20133;-78
2021/01/24 09:22:12;;;;;;;1.45;0.63;;;2.10;99.90;;;;;;5035735;28;20117;-78
2021/01/24 09:24:40;;;;;;;0.20;0.20;;;2.10;99.90;;;;;;5036312;28;20045;-78
2021/01/24 09:27:09;;;;;;;1.58;1.48;;;2.10;99.90;;;;;;5035235;28;20498;-80
2021/01/24 09:29:36;;;;;;;0.25;0.25;;;2.10;99.90;;;;;;5036012;28;20088;-79
2021/01/24 09:32:03;;;;;;;0.20;0.20;;;2.00;99.90;;;;;;5036862;28;20203;-79
2021/01/24 09:34:30;;;;;;;0.20;0.20;;;2.00;99.90;;;;;;5036421;28;20060;-79
2021/01/24 09:36:56;;;;;;;0.00;0.00;;;2.00;99.90;;;;;;5035927;28;20129;-79
2021/01/24 09:39:23;;;;;;;0.22;0.22;;;2.10;99.90;;;;;;5036284;28;20128;-79
2021/01/24 09:41:49;;;;;;;0.15;0.15;;;2.10;99.90;;;;;;5035799;28;20053;-81
2021/01/24 09:44:16;;;;;;;1.65;1.55;;;2.10;99.90;;;;;;5035502;28;20140;-80
2021/01/24 09:46:43;;;;;;;1.02;0.82;;;2.10;99.90;;;;;;5035513;28;20053;-81
2021/01/24 09:49:10;;;;;;;0.00;0.00;;;2.10;99.90;;;;;;5035525;28;20509;-80
2021/01/24 09:51:36;;;;;;;2.40;2.25;;;2.10;99.90;;;;;;5035342;28;20137;-80
2021/01/24 09:54:03;;;;;;;0.40;0.40;;;2.10;99.90;;;;;;5035939;28;20401;-80
2021/01/24 09:56:30;;;;;;;0.20;0.20;;;2.00;99.90;;;;;;5034744;28;20163;-80
2021/01/24 09:59:01;;;;;;;0.88;0.88;;;2.00;99.90;;;;;;5041153;28;20045;-80
2021/01/24 10:02:13;;;;;;;1.70;1.60;;;2.10;99.90;;;;;;5053633;28;20050;-82
2021/01/24 10:04:42;;;;;;;0.17;0.17;;;2.10;99.90;;;;;;5045415;28;20077;-83
2021/01/24 10:07:09;;;;;;;0.90;0.90;;;2.10;99.90;;;;;;5046340;28;20079;-81
2021/01/24 10:09:35;;;;;;;0.00;0.00;;;2.10;99.90;;;;;;5046849;28;20100;-82
2021/01/24 10:12:01;;;;;;;5.40;0.95;;;2.10;99.90;;;;;;5044569;28;20060;-82
2021/01/24 10:14:29;;;;;;;3.00;2.72;;;2.10;99.90;;;;;;5050341;28;20087;-82
2021/01/24 10:16:58;;;;;;;0.10;0.10;;;2.20;99.90;;;;;;5040441;28;20049;-81
2021/01/24 10:19:25;;;;;;;0.85;0.85;;;2.20;99.90;;;;;;5041493;28;20064;-81
2021/01/24 10:21:55;;;;;;;0.47;0.47;;;2.20;99.90;;;;;;5038264;28;20069;-82
2021/01/24 10:24:21;;;;;;;0.43;0.43;;;2.20;99.90;;;;;;5038060;28;20147;-81
2021/01/24 10:26:48;;;;;;;0.13;0.13;;;2.30;99.90;;;;;;5036673;28;20081;-81
2021/01/24 10:29:14;;;;;;;0.65;0.65;;;2.20;99.90;;;;;;5036053;28;20054;-81
2021/01/24 10:31:41;;;;;;;1.15;1.05;;;2.30;99.90;;;;;;5040804;28;20054;-81
2021/01/24 10:34:08;;;;;;;0.10;0.10;;;2.30;99.90;;;;;;5041396;28;20103;-80
2021/01/24 10:36:37;;;;;;;0.30;0.30;;;2.40;99.90;;;;;;5041360;28;20191;-80
2021/01/24 10:39:05;;;;;;;0.20;0.20;;;2.40;99.90;;;;;;5042583;28;20084;-80
2021/01/24 10:41:32;;;;;;;0.00;0.00;;;2.40;99.90;;;;;;5037268;28;20107;-81
2021/01/24 10:44:01;;;;;;;0.10;0.10;;;2.40;99.90;;;;;;5034119;28;20058;-78
2021/01/24 10:46:30;;;;;;;2.45;1.70;;;2.40;99.90;;;;;;5033556;28;20045;-79
2021/01/24 10:48:59;;;;;;;1.35;1.30;;;2.40;99.90;;;;;;5041016;28;20444;-80
2021/01/24 10:51:26;;;;;;;1.85;1.70;;;2.40;99.90;;;;;;5040379;28;20480;-80
2021/01/24 10:53:52;;;;;;;1.88;1.77;;;2.50;99.90;;;;;;5040301;28;20053;-78
2021/01/24 10:56:20;;;;;;;0.10;0.10;;;2.50;99.90;;;;;;5043086;28;20049;-77
2021/01/24 10:58:46;;;;;;;0.00;0.00;;;2.50;99.90;;;;;;5040610;28;20045;-77
2021/01/24 11:01:13;;;;;;;1.00;1.00;;;2.60;99.90;;;;;;5042519;28;20085;-76
2021/01/24 11:03:39;;;;;;;1.08;1.08;;;2.70;99.90;;;;;;5042138;28;20055;-78
2021/01/24 11:06:06;;;;;;;1.42;1.35;;;2.70;99.90;;;;;;5035502;28;20187;-78
2021/01/24 11:08:32;;;;;;;0.95;0.82;;;2.80;99.90;;;;;;5034791;28;20045;-79
2021/01/24 11:10:59;;;;;;;1.48;1.38;;;2.80;99.90;;;;;;5033049;28;20046;-77
2021/01/24 11:13:26;;;;;;;0.22;0.22;;;2.80;99.90;;;;;;5031520;28;20132;-77
2021/01/24 11:15:52;;;;;;;0.52;0.52;;;2.80;99.90;;;;;;5031977;28;20076;-76
2021/01/24 11:18:19;;;;;;;0.10;0.10;;;2.80;99.90;;;;;;5032137;28;20049;-77
2021/01/24 11:20:45;;;;;;;1.45;1.10;;;2.80;99.90;;;;;;5031718;28;20083;-77
2021/01/24 11:23:12;;;;;;;0.40;0.40;;;2.80;99.90;;;;;;5031924;28;20089;-78
2021/01/24 11:25:38;;;;;;;2.30;2.10;;;2.80;99.90;;;;;;5031798;28;20045;-76
2021/01/24 11:28:06;;;;;;;0.30;0.30;;;2.80;99.90;;;;;;5032602;28;20045;-77
2021/01/24 11:30:33;;;;;;;3.50;1.88;;;2.90;99.90;;;;;;5032387;28;20536;-77
2021/01/24 11:33:00;;;;;;;1.27;1.23;;;2.90;99.90;;;;;;5032001;28;20099;-77
2021/01/24 11:35:26;;;;;;;0.95;0.95;;;3.00;99.90;;;;;;5032091;28;20144;-77
2021/01/24 11:37:53;;;;;;;0.50;0.50;;;3.00;99.90;;;;;;5032229;28;20128;-76
2021/01/24 11:40:19;;;;;;;0.88;0.88;;;3.00;99.90;;;;;;5031919;28;20132;-75
2021/01/24 11:42:46;;;;;;;2.20;1.48;;;3.10;99.90;;;;;;5031168;28;20597;-77
2021/01/24 11:45:13;;;;;;;1.85;1.70;;;3.20;99.90;;;;;;5030488;28;20132;-77
2021/01/24 11:47:40;;;;;;;4.97;2.53;;;3.10;99.90;;;;;;5030295;28;20530;-77
2021/01/24 11:50:07;;;;;;;0.93;0.63;;;3.20;99.90;;;;;;5030355;28;20493;-75
2021/01/24 11:52:34;;;;;;;2.22;2.08;;;3.30;99.90;;;;;;5031071;28;20132;-76
2021/01/24 11:55:00;;;;;;;0.45;0.45;;;3.40;99.90;;;;;;5021393;28;20515;-78
2021/01/24 11:57:27;;;;;;;2.42;2.22;;;3.50;99.90;;;;;;5027268;28;20132;-77
2021/01/24 11:59:53;;;;;;;1.95;1.85;;;3.50;99.90;;;;;;5033190;28;20133;-77
2021/01/24 12:02:21;;;;;;;0.47;0.47;;;3.50;99.90;;;;;;5030214;28;20124;-79
2021/01/24 12:04:49;;;;;;;2.75;1.40;;;3.40;99.90;;;;;;5033622;28;20474;-77
2021/01/24 12:07:15;;;;;;;1.85;1.50;;;3.30;99.90;;;;;;5034429;28;20128;-78
2021/01/24 12:09:41;;;;;;;1.13;1.08;;;3.20;99.90;;;;;;5057970;23;20137;-81
2021/01/24 12:12:08;;;;;;;0.10;0.10;;;3.10;99.90;;;;;;5042059;28;20087;-83
2021/01/24 12:14:35;;;;;;;0.28;0.28;;;3.10;99.90;;;;;;5044326;28;20126;-83
2021/01/24 12:17:02;;;;;;;0.40;0.40;;;3.20;99.90;;;;;;5042289;28;20088;-83
2021/01/24 12:19:28;;;;;;;0.25;0.25;;;3.20;99.90;;;;;;5031753;28;20049;-80
2021/01/24 12:21:55;;;;;;;0.22;0.22;;;3.20;99.90;;;;;;5019292;28;20077;-81
2021/01/24 12:24:22;;;;;;;3.33;1.98;;;3.30;99.90;;;;;;5022276;28;20081;-81
2021/01/24 12:26:48;;;;;;;0.22;0.22;;;3.30;99.90;;;;;;5022572;28;20073;-81
2021/01/24 12:29:15;;;;;;;1.60;1.52;;;3.20;99.90;;;;;;5026825;28;20077;-81
2021/01/24 12:31:41;;;;;;;0.32;0.32;;;3.10;99.90;;;;;;5006447;28;20081;-82
2021/01/24 12:34:07;;;;;;;0.35;0.35;;;3.10;99.90;;;;;;5014648;28;20081;-81
2021/01/24 12:36:34;;;;;;;0.20;0.20;;;3.10;99.90;;;;;;5024607;28;20077;-82
2021/01/24 12:39:01;;;;;;;1.13;1.13;;;3.00;99.90;;;;;;5022545;28;20486;-82
2021/01/24 12:41:27;;;;;;;0.38;0.38;;;3.10;99.90;;;;;;5024888;28;20050;-81
2021/01/24 12:43:54;;;;;;;0.30;0.30;;;3.10;99.90;;;;;;5024859;28;20136;-82
2021/01/24 12:46:20;;;;;;;0.20;0.20;;;3.10;99.90;;;;;;5028274;28;20053;-82
2021/01/24 12:48:46;;;;;;;0.70;0.70;;;3.10;99.90;;;;;;5027681;28;20066;-81
2021/01/24 12:51:13;;;;;;;0.10;0.10;;;3.20;99.90;;;;;;5024016;28;20093;-82
2021/01/24 12:53:39;;;;;;;0.55;0.55;;;3.20;99.90;;;;;;5005670;28;20563;-83
2021/01/24 12:56:07;;;;;;;0.70;0.70;;;3.20;99.90;;;;;;5011211;28;20077;-82
2021/01/24 12:58:33;;;;;;;0.57;0.57;;;3.20;99.90;;;;;;5005243;28;20089;-83